sensor_id;sensor_type;location;lat;lon;timestamp;pressure;altitude;pressure_sealevel;temperature;humidity
53270;BME280;39159;45.634;9.420;2023-05-10T00:02:23;98489.22;;;12.15;100.00
53270;BME280;39159;45.634;9.420;2023-05-10T00:04:49;98488.53;;;12.18;100.00
53270;BME280;39159;45.634;9.420;2023-05-10T00:07:15;98484.69;;;12.19;100.00
53270;BME280;39159;45.634;9.420;2023-05-10T00:09:42;98496.63;;;12.14;100.00
53270;BME280;39159;45.634;9.420;2023-05-10T00:12:08;98494.03;;;12.18;100.00
53270;BME280;39159;45.634;9.420;2023-05-10T00:14:33;98490.53;;;12.09;100.00
53270;BME280;39159;45.634;9.420;2023-05-10T00:16:59;98495.69;;;12.10;100.00
53270;BME280;39159;45.634;9.420;2023-05-10T00:19:25;98495.69;;;12.10;100.00
53270;BME280;39159;45.634;9.420;2023-05-10T00:21:50;98486.16;;;12.16;100.00
53270;BME280;39159;45.634;9.420;2023-05-10T00:24:16;98491.47;;;12.13;100.00
53270;BME280;39159;45.634;9.420;2023-05-10T00:26:41;98501.13;;;12.19;100.00
53270;BME280;39159;45.634;9.420;2023-05-10T00:29:07;98496.47;;;12.11;100.00
53270;BME280;39159;45.634;9.420;2023-05-10T00:31:33;98499.06;;;12.07;100.00
53270;BME280;39159;45.634;9.420;2023-05-10T00:33:58;98495.03;;;12.05;100.00
53270;BME280;39159;45.634;9.420;2023-05-10T00:36:24;98498.13;;;12.03;100.00
53270;BME280;39159;45.634;9.420;2023-05-10T00:38:49;98500.03;;;12.02;100.00
53270;BME280;39159;45.634;9.420;2023-05-10T00:41:15;98499.75;;;11.95;100.00
53270;BME280;39159;45.634;9.420;2023-05-10T00:43:41;98490.41;;;12.05;100.00
53270;BME280;39159;45.634;9.420;2023-05-10T00:46:07;98492.03;;;11.97;100.00
53270;BME280;39159;45.634;9.420;2023-05-10T00:48:32;98478.66;;;11.96;100.00
53270;BME280;39159;45.634;9.420;2023-05-10T00:50:58;98478.06;;;11.90;100.00
53270;BME280;39159;45.634;9.420;2023-05-10T00:53:24;98483.06;;;11.88;100.00
53270;BME280;39159;45.634;9.420;2023-05-10T00:55:50;98492.84;;;11.89;100.00
53270;BME280;39159;45.634;9.420;2023-05-10T00:58:16;98483.53;;;11.90;100.00
53270;BME280;39159;45.634;9.420;2023-05-10T01:00:42;98489.81;;;11.91;100.00
53270;BME280;39159;45.634;9.420;2023-05-10T01:03:11;98463.59;;;11.90;100.00
53270;BME280;39159;45.634;9.420;2023-05-10T01:05:37;98481.28;;;11.83;100.00
53270;BME280;39159;45.634;9.420;2023-05-10T01:08:03;98477.44;;;11.76;100.00
53270;BME280;39159;45.634;9.420;2023-05-10T01:10:29;98475.19;;;11.78;100.00
53270;BME280;39159;45.634;9.420;2023-05-10T01:12:55;98479.25;;;11.72;100.00
53270;BME280;39159;45.634;9.420;2023-05-10T01:15:21;98471.53;;;11.74;100.00
53270;BME280;39159;45.634;9.420;2023-05-10T01:17:47;98470.06;;;11.76;100.00
53270;BME280;39159;45.634;9.420;2023-05-10T01:20:14;98467.47;;;11.71;100.00
53270;BME280;39159;45.634;9.420;2023-05-10T01:31:27;98471.69;;;11.60;100.00
53270;BME280;39159;45.634;9.420;2023-05-10T01:34:02;98478.13;;;11.64;100.00
53270;BME280;39159;45.634;9.420;2023-05-10T01:36:37;98469.31;;;11.58;100.00
53270;BME280;39159;45.634;9.420;2023-05-10T01:39:20;98467.38;;;11.59;100.00
53270;BME280;39159;45.634;9.420;2023-05-10T01:42:03;98470.75;;;11.56;100.00
53270;BME280;39159;45.634;9.420;2023-05-10T01:44:41;98476.06;;;11.52;100.00
53270;BME280;39159;45.634;9.420;2023-05-10T01:47:11;98474.31;;;11.56;100.00
53270;BME280;39159;45.634;9.420;2023-05-10T01:49:53;98459.69;;;11.52;100.00
53270;BME280;39159;45.634;9.420;2023-05-10T01:52:25;98458.88;;;11.52;100.00
53270;BME280;39159;45.634;9.420;2023-05-10T01:54:55;98461.13;;;11.50;100.00
53270;BME280;39159;45.634;9.420;2023-05-10T01:57:23;98460.97;;;11.55;100.00
53270;BME280;39159;45.634;9.420;2023-05-10T01:59:51;98459.53;;;11.49;100.00
53270;BME280;39159;45.634;9.420;2023-05-10T02:02:20;98467.09;;;11.52;100.00
53270;BME280;39159;45.634;9.420;2023-05-10T02:04:47;98472.69;;;11.55;100.00
53270;BME280;39159;45.634;9.420;2023-05-10T02:07:15;98466.75;;;11.53;100.00
53270;BME280;39159;45.634;9.420;2023-05-10T02:09:44;98465.00;;;11.49;100.00
53270;BME280;39159;45.634;9.420;2023-05-10T02:12:13;98465.47;;;11.51;100.00
53270;BME280;39159;45.634;9.420;2023-05-10T02:14:39;98462.22;;;11.57;100.00
53270;BME280;39159;45.634;9.420;2023-05-10T02:17:07;98459.97;;;11.59;100.00
53270;BME280;39159;45.634;9.420;2023-05-10T02:19:34;98457.91;;;11.56;100.00
53270;BME280;39159;45.634;9.420;2023-05-10T02:22:02;98451.16;;;11.54;100.00
53270;BME280;39159;45.634;9.420;2023-05-10T02:24:28;98453.44;;;11.52;100.00
53270;BME280;39159;45.634;9.420;2023-05-10T02:26:55;98459.81;;;11.56;100.00
53270;BME280;39159;45.634;9.420;2023-05-10T02:29:23;98459.97;;;11.59;100.00
53270;BME280;39159;45.634;9.420;2023-05-10T02:31:52;98448.09;;;11.55;100.00
53270;BME280;39159;45.634;9.420;2023-05-10T02:34:21;98449.22;;;11.54;100.00
53270;BME280;39159;45.634;9.420;2023-05-10T02:36:47;98448.75;;;11.52;100.00
53270;BME280;39159;45.634;9.420;2023-05-10T02:39:14;98445.84;;;11.49;100.00
53270;BME280;39159;45.634;9.420;2023-05-10T02:41:41;98457.44;;;11.46;100.00
53270;BME280;39159;45.634;9.420;2023-05-10T02:44:08;98453.06;;;11.53;100.00
53270;BME280;39159;45.634;9.420;2023-05-10T02:46:35;98451.81;;;11.51;100.00
53270;BME280;39159;45.634;9.420;2023-05-10T02:49:02;98443.91;;;11.49;100.00
53270;BME280;39159;45.634;9.420;2023-05-10T02:51:30;98447.97;;;11.52;100.00
53270;BME280;39159;45.634;9.420;2023-05-10T02:54:09;98447.78;;;11.48;100.00
53270;BME280;39159;45.634;9.420;2023-05-10T02:56:36;98443.47;;;11.47;100.00
53270;BME280;39159;45.634;9.420;2023-05-10T02:59:06;98435.59;;;11.46;100.00
53270;BME280;39159;45.634;9.420;2023-05-10T03:01:32;98439.91;;;11.47;100.00
53270;BME280;39159;45.634;9.420;2023-05-10T03:03:57;98441.81;;;11.55;100.00
53270;BME280;39159;45.634;9.420;2023-05-10T03:06:23;98446.53;;;11.46;100.00
53270;BME280;39159;45.634;9.420;2023-05-10T03:08:48;98453.56;;;11.47;100.00
53270;BME280;39159;45.634;9.420;2023-05-10T03:16:56;98448.28;;;11.41;100.00
53270;BME280;39159;45.634;9.420;2023-05-10T03:19:55;98454.44;;;11.38;100.00
53270;BME280;39159;45.634;9.420;2023-05-10T03:22:26;98452.16;;;11.40;100.00
53270;BME280;39159;45.634;9.420;2023-05-10T03:24:55;98446.22;;;11.38;100.00
53270;BME280;39159;45.634;9.420;2023-05-10T03:27:23;98448.78;;;11.35;100.00
53270;BME280;39159;45.634;9.420;2023-05-10T03:29:50;98454.25;;;11.35;100.00
53270;BME280;39159;45.634;9.420;2023-05-10T03:32:16;98447.34;;;11.37;100.00
53270;BME280;39159;45.634;9.420;2023-05-10T03:34:42;98450.38;;;11.36;100.00
53270;BME280;39159;45.634;9.420;2023-05-10T03:37:11;98449.13;;;11.33;100.00
53270;BME280;39159;45.634;9.420;2023-05-10T03:39:36;98451.03;;;11.33;100.00
53270;BME280;39159;45.634;9.420;2023-05-10T03:42:02;98453.00;;;11.32;100.00
53270;BME280;39159;45.634;9.420;2023-05-10T03:44:27;98459.44;;;11.28;100.00
53270;BME280;39159;45.634;9.420;2023-05-10T03:46:53;98460.69;;;11.30;100.00
53270;BME280;39159;45.634;9.420;2023-05-10T03:49:18;98458.75;;;11.31;100.00
53270;BME280;39159;45.634;9.420;2023-05-10T03:51:44;98458.28;;;11.29;100.00
53270;BME280;39159;45.634;9.420;2023-05-10T03:54:09;98459.06;;;11.29;100.00
53270;BME280;39159;45.634;9.420;2023-05-10T03:56:35;98459.91;;;11.30;100.00
53270;BME280;39159;45.634;9.420;2023-05-10T03:59:00;98455.56;;;11.29;100.00
53270;BME280;39159;45.634;9.420;2023-05-10T04:01:26;98467.75;;;11.31;100.00
53270;BME280;39159;45.634;9.420;2023-05-10T04:03:51;98462.47;;;11.35;100.00
53270;BME280;39159;45.634;9.420;2023-05-10T04:06:16;98465.19;;;11.35;100.00
53270;BME280;39159;45.634;9.420;2023-05-10T04:08:42;98466.78;;;11.36;100.00
53270;BME280;39159;45.634;9.420;2023-05-10T04:11:09;98467.59;;;11.36;100.00
53270;BME280;39159;45.634;9.420;2023-05-10T04:13:35;98469.69;;;11.39;100.00
53270;BME280;39159;45.634;9.420;2023-05-10T04:16:01;98470.47;;;11.40;100.00
53270;BME280;39159;45.634;9.420;2023-05-10T04:18:26;98472.25;;;11.36;100.00
53270;BME280;39159;45.634;9.420;2023-05-10T04:20:52;98470.81;;;11.38;100.00
53270;BME280;39159;45.634;9.420;2023-05-10T04:23:17;98474.81;;;11.50;100.00
53270;BME280;39159;45.634;9.420;2023-05-10T04:25:43;98480.09;;;11.55;100.00
53270;BME280;39159;45.634;9.420;2023-05-10T04:28:08;98475.28;;;11.52;100.00
53270;BME280;39159;45.634;9.420;2023-05-10T04:30:34;98478.94;;;11.56;100.00
53270;BME280;39159;45.634;9.420;2023-05-10T04:33:00;98477.53;;;11.58;100.00
53270;BME280;39159;45.634;9.420;2023-05-10T04:35:27;98480.84;;;11.64;100.00
53270;BME280;39159;45.634;9.420;2023-05-10T04:37:53;98482.28;;;11.70;100.00
53270;BME280;39159;45.634;9.420;2023-05-10T04:40:19;98481.97;;;11.72;100.00
53270;BME280;39159;45.634;9.420;2023-05-10T04:42:45;98482.28;;;11.70;100.00
53270;BME280;39159;45.634;9.420;2023-05-10T04:45:10;98491.94;;;11.76;100.00
53270;BME280;39159;45.634;9.420;2023-05-10T04:47:36;98488.53;;;11.79;100.00
53270;BME280;39159;45.634;9.420;2023-05-10T04:50:03;98486.28;;;11.81;100.00
53270;BME280;39159;45.634;9.420;2023-05-10T04:52:29;98482.28;;;11.88;100.00
53270;BME280;39159;45.634;9.420;2023-05-10T04:54:54;98486.88;;;11.87;100.00
53270;BME280;39159;45.634;9.420;2023-05-10T04:57:20;98489.16;;;11.85;100.00
53270;BME280;39159;45.634;9.420;2023-05-10T04:59:45;98490.94;;;11.81;100.00
53270;BME280;39159;45.634;9.420;2023-05-10T05:02:11;98495.75;;;11.84;100.00
53270;BME280;39159;45.634;9.420;2023-05-10T05:04:36;98495.59;;;11.89;100.00
53270;BME280;39159;45.634;9.420;2023-05-10T05:07:02;98490.59;;;11.82;100.00
53270;BME280;39159;45.634;9.420;2023-05-10T05:09:27;98496.72;;;11.79;100.00
53270;BME280;39159;45.634;9.420;2023-05-10T05:11:53;98492.06;;;11.80;100.00
53270;BME280;39159;45.634;9.420;2023-05-10T05:14:18;98496.88;;;11.83;100.00
53270;BME280;39159;45.634;9.420;2023-05-10T05:16:46;98492.69;;;11.86;100.00
53270;BME280;39159;45.634;9.420;2023-05-10T05:19:11;98499.16;;;11.81;100.00
53270;BME280;39159;45.634;9.420;2023-05-10T05:21:37;98492.22;;;11.83;100.00
53270;BME280;39159;45.634;9.420;2023-05-10T05:24:03;98482.41;;;11.82;100.00
53270;BME280;39159;45.634;9.420;2023-05-10T05:26:28;98450.41;;;11.92;100.00
53270;BME280;39159;45.634;9.420;2023-05-10T05:28:54;98446.06;;;11.91;100.00
53270;BME280;39159;45.634;9.420;2023-05-10T05:31:20;98449.16;;;11.80;100.00
53270;BME280;39159;45.634;9.420;2023-05-10T05:33:45;98466.34;;;11.81;100.00
53270;BME280;39159;45.634;9.420;2023-05-10T05:36:11;98467.13;;;11.81;100.00
53270;BME280;39159;45.634;9.420;2023-05-10T05:38:37;98460.72;;;11.77;100.00
53270;BME280;39159;45.634;9.420;2023-05-10T05:41:02;98464.44;;;11.73;100.00
53270;BME280;39159;45.634;9.420;2023-05-10T05:43:28;98471.53;;;11.74;100.00
53270;BME280;39159;45.634;9.420;2023-05-10T05:45:54;98481.47;;;11.78;100.00
53270;BME280;39159;45.634;9.420;2023-05-10T05:48:20;98489.50;;;11.75;100.00
53270;BME280;39159;45.634;9.420;2023-05-10T05:50:45;98504.78;;;11.76;100.00
53270;BME280;39159;45.634;9.420;2023-05-10T05:53:11;98515.88;;;11.71;100.00
53270;BME280;39159;45.634;9.420;2023-05-10T05:55:36;98511.56;;;11.70;100.00
53270;BME280;39159;45.634;9.420;2023-05-10T05:58:02;98509.59;;;11.96;100.00
53270;BME280;39159;45.634;9.420;2023-05-10T06:00:28;98497.66;;;12.01;100.00
53270;BME280;39159;45.634;9.420;2023-05-10T06:02:54;98490.75;;;11.95;100.00
53270;BME280;39159;45.634;9.420;2023-05-10T06:05:19;98474.81;;;11.97;100.00
53270;BME280;39159;45.634;9.420;2023-05-10T06:07:46;98469.69;;;11.87;100.00
53270;BME280;39159;45.634;9.420;2023-05-10T06:10:11;98458.94;;;11.81;100.00
53270;BME280;39159;45.634;9.420;2023-05-10T06:12:37;98465.72;;;11.75;100.00
53270;BME280;39159;45.634;9.420;2023-05-10T06:15:03;98458.34;;;11.67;100.00
53270;BME280;39159;45.634;9.420;2023-05-10T06:17:29;98464.34;;;11.60;100.00
53270;BME280;39159;45.634;9.420;2023-05-10T06:19:55;98476.06;;;11.52;100.00
53270;BME280;39159;45.634;9.420;2023-05-10T06:22:20;98491.69;;;11.52;100.00
53270;BME280;39159;45.634;9.420;2023-05-10T06:24:48;98513.19;;;11.53;100.00
53270;BME280;39159;45.634;9.420;2023-05-10T06:27:13;98522.66;;;11.56;100.00
53270;BME280;39159;45.634;9.420;2023-05-10T06:29:38;98517.22;;;11.56;100.00
53270;BME280;39159;45.634;9.420;2023-05-10T06:32:04;98508.22;;;11.55;100.00
53270;BME280;39159;45.634;9.420;2023-05-10T06:34:29;98502.25;;;11.53;100.00
53270;BME280;39159;45.634;9.420;2023-05-10T06:36:55;98483.78;;;11.59;100.00
53270;BME280;39159;45.634;9.420;2023-05-10T06:39:20;98480.22;;;11.67;100.00
53270;BME280;39159;45.634;9.420;2023-05-10T06:41:46;98466.19;;;11.77;100.00
53270;BME280;39159;45.634;9.420;2023-05-10T06:44:11;98458.94;;;11.81;100.00
53270;BME280;39159;45.634;9.420;2023-05-10T06:46:38;98456.53;;;11.80;100.00
53270;BME280;39159;45.634;9.420;2023-05-10T06:49:03;98447.53;;;11.79;100.00
53270;BME280;39159;45.634;9.420;2023-05-10T06:51:29;98453.19;;;11.74;100.00
53270;BME280;39159;45.634;9.420;2023-05-10T06:53:55;98449.81;;;11.69;100.00
53270;BME280;39159;45.634;9.420;2023-05-10T06:56:20;98452.53;;;11.69;100.00
53270;BME280;39159;45.634;9.420;2023-05-10T06:58:47;98453.22;;;11.66;100.00
53270;BME280;39159;45.634;9.420;2023-05-10T07:01:13;98448.25;;;11.59;100.00
53270;BME280;39159;45.634;9.420;2023-05-10T07:03:38;98458.22;;;11.55;100.00
53270;BME280;39159;45.634;9.420;2023-05-10T07:06:04;98448.88;;;11.56;100.00
53270;BME280;39159;45.634;9.420;2023-05-10T07:08:31;98443.88;;;11.67;100.00
53270;BME280;39159;45.634;9.420;2023-05-10T07:11:01;98443.88;;;11.67;100.00
53270;BME280;39159;45.634;9.420;2023-05-10T07:13:28;98444.84;;;11.62;100.00
53270;BME280;39159;45.634;9.420;2023-05-10T07:15:54;98451.59;;;11.65;100.00
53270;BME280;39159;45.634;9.420;2023-05-10T07:18:19;98454.97;;;11.70;100.00
53270;BME280;39159;45.634;9.420;2023-05-10T07:20:45;98457.06;;;11.65;100.00
53270;BME280;39159;45.634;9.420;2023-05-10T07:23:10;98456.13;;;11.60;100.00
53270;BME280;39159;45.634;9.420;2023-05-10T07:25:36;98474.28;;;11.65;100.00
53270;BME280;39159;45.634;9.420;2023-05-10T07:28:01;98482.63;;;11.69;100.00
53270;BME280;39159;45.634;9.420;2023-05-10T07:30:27;98491.94;;;11.76;100.00
53270;BME280;39159;45.634;9.420;2023-05-10T07:32:52;98508.66;;;11.75;100.00
53270;BME280;39159;45.634;9.420;2023-05-10T07:35:17;98504.47;;;11.77;100.00
53270;BME280;39159;45.634;9.420;2023-05-10T07:37:43;98508.81;;;11.78;100.00
53270;BME280;39159;45.634;9.420;2023-05-10T07:40:09;98511.53;;;11.78;100.00
53270;BME280;39159;45.634;9.420;2023-05-10T07:42:34;98510.09;;;11.81;100.00
53270;BME280;39159;45.634;9.420;2023-05-10T07:45:00;98512.16;;;11.93;100.00
53270;BME280;39159;45.634;9.420;2023-05-10T07:47:25;98502.13;;;12.06;100.00
53270;BME280;39159;45.634;9.420;2023-05-10T07:49:51;98497.56;;;12.18;100.00
53270;BME280;39159;45.634;9.420;2023-05-10T07:52:16;98496.72;;;12.27;100.00
53270;BME280;39159;45.634;9.420;2023-05-10T07:54:42;98496.25;;;12.24;100.00
53270;BME280;39159;45.634;9.420;2023-05-10T07:57:07;98500.75;;;12.20;100.00
53270;BME280;39159;45.634;9.420;2023-05-10T07:59:33;98504.91;;;12.27;100.00
53270;BME280;39159;45.634;9.420;2023-05-10T08:01:58;98504.22;;;12.38;100.00
53270;BME280;39159;45.634;9.420;2023-05-10T08:04:24;98496.88;;;12.51;100.00
53270;BME280;39159;45.634;9.420;2023-05-10T08:06:49;98510.25;;;12.53;100.00
53270;BME280;39159;45.634;9.420;2023-05-10T08:09:16;98501.50;;;12.59;100.00
53270;BME280;39159;45.634;9.420;2023-05-10T08:11:41;98508.00;;;12.55;100.00
53270;BME280;39159;45.634;9.420;2023-05-10T08:14:07;98503.97;;;12.52;100.00
53270;BME280;39159;45.634;9.420;2023-05-10T08:16:32;98499.94;;;12.58;100.00
53270;BME280;39159;45.634;9.420;2023-05-10T08:18:57;98498.34;;;12.78;100.00
53270;BME280;39159;45.634;9.420;2023-05-10T08:21:23;98504.06;;;12.85;100.00
53270;BME280;39159;45.634;9.420;2023-05-10T08:23:49;98512.94;;;12.82;100.00
53270;BME280;39159;45.634;9.420;2023-05-10T08:26:14;98510.03;;;12.88;100.00
53270;BME280;39159;45.634;9.420;2023-05-10T08:28:40;98512.63;;;12.84;100.00
53270;BME280;39159;45.634;9.420;2023-05-10T08:31:05;98517.03;;;12.76;100.00
53270;BME280;39159;45.634;9.420;2023-05-10T08:33:31;98519.03;;;12.88;100.00
53270;BME280;39159;45.634;9.420;2023-05-10T08:35:56;98523.09;;;12.82;100.00
53270;BME280;39159;45.634;9.420;2023-05-10T08:38:22;98525.19;;;12.85;100.00
53270;BME280;39159;45.634;9.420;2023-05-10T08:40:48;98526.09;;;12.89;100.00
53270;BME280;39159;45.634;9.420;2023-05-10T08:43:16;98521.09;;;12.91;100.00
53270;BME280;39159;45.634;9.420;2023-05-10T08:45:44;98525.72;;;12.99;100.00
53270;BME280;39159;45.634;9.420;2023-05-10T08:48:12;98527.59;;;13.07;100.00
53270;BME280;39159;45.634;9.420;2023-05-10T08:50:39;98534.59;;;13.17;100.00
53270;BME280;39159;45.634;9.420;2023-05-10T08:53:09;98536.19;;;13.18;100.00
53270;BME280;39159;45.634;9.420;2023-05-10T08:55:35;98535.28;;;13.14;100.00
53270;BME280;39159;45.634;9.420;2023-05-10T08:58:03;98541.75;;;13.10;100.00
53270;BME280;39159;45.634;9.420;2023-05-10T09:00:29;98540.88;;;13.18;100.00
53270;BME280;39159;45.634;9.420;2023-05-10T09:02:55;98542.50;;;13.19;100.00
53270;BME280;39159;45.634;9.420;2023-05-10T09:05:22;98544.50;;;13.10;100.00
53270;BME280;39159;45.634;9.420;2023-05-10T09:07:47;98542.41;;;13.06;100.00
53270;BME280;39159;45.634;9.420;2023-05-10T09:10:13;98544.28;;;13.15;100.00
53270;BME280;39159;45.634;9.420;2023-05-10T09:12:40;98541.22;;;13.16;100.00
53270;BME280;39159;45.634;9.420;2023-05-10T09:15:07;98545.88;;;13.16;100.00
53270;BME280;39159;45.634;9.420;2023-05-10T09:17:33;98541.88;;;13.13;100.00
53270;BME280;39159;45.634;9.420;2023-05-10T09:20:03;98543.34;;;13.11;100.00
53270;BME280;39159;45.634;9.420;2023-05-10T09:22:32;98552.72;;;13.10;100.00
53270;BME280;39159;45.634;9.420;2023-05-10T09:27:30;98554.03;;;13.03;100.00
53270;BME280;39159;45.634;9.420;2023-05-10T09:29:55;98550.03;;;13.01;100.00
53270;BME280;39159;45.634;9.420;2023-05-10T09:32:21;98556.84;;;12.95;100.00
53270;BME280;39159;45.634;9.420;2023-05-10T09:34:49;98552.31;;;12.99;100.00
53270;BME280;39159;45.634;9.420;2023-05-10T09:37:15;98548.56;;;13.03;100.00
53270;BME280;39159;45.634;9.420;2023-05-10T09:39:40;98551.09;;;13.09;100.00
53270;BME280;39159;45.634;9.420;2023-05-10T09:42:08;98546.56;;;13.13;100.00
53270;BME280;39159;45.634;9.420;2023-05-10T09:44:34;98547.28;;;13.22;100.00
53270;BME280;39159;45.634;9.420;2023-05-10T09:47:01;98546.09;;;13.32;100.00
53270;BME280;39159;45.634;9.420;2023-05-10T09:49:27;98548.66;;;13.37;100.00
53270;BME280;39159;45.634;9.420;2023-05-10T09:52:04;98556.66;;;13.42;100.00
53270;BME280;39159;45.634;9.420;2023-05-10T09:54:30;98555.06;;;13.41;100.00
53270;BME280;39159;45.634;9.420;2023-05-10T09:56:56;98555.78;;;13.50;100.00
53270;BME280;39159;45.634;9.420;2023-05-10T09:59:25;98543.59;;;13.60;100.00
53270;BME280;39159;45.634;9.420;2023-05-10T10:01:52;98550.38;;;13.75;100.00
53270;BME280;39159;45.634;9.420;2023-05-10T10:04:17;98546.69;;;13.71;100.00
53270;BME280;39159;45.634;9.420;2023-05-10T10:06:45;98544.22;;;13.78;100.00
53270;BME280;39159;45.634;9.420;2023-05-10T10:09:10;98549.34;;;13.79;100.00
53270;BME280;39159;45.634;9.420;2023-05-10T10:11:37;98548.66;;;13.70;100.00
53270;BME280;39159;45.634;9.420;2023-05-10T10:14:03;98544.75;;;13.71;100.00
53270;BME280;39159;45.634;9.420;2023-05-10T10:16:29;98542.78;;;13.59;100.00
53270;BME280;39159;45.634;9.420;2023-05-10T10:18:55;98545.19;;;13.61;100.00
53270;BME280;39159;45.634;9.420;2023-05-10T10:21:22;98543.81;;;13.67;100.00
53270;BME280;39159;45.634;9.420;2023-05-10T10:23:48;98544.09;;;13.74;100.00
53270;BME280;39159;45.634;9.420;2023-05-10T10:26:15;98540.13;;;13.84;100.00
53270;BME280;39159;45.634;9.420;2023-05-10T10:31:45;98538.16;;;13.84;100.00
53270;BME280;39159;45.634;9.420;2023-05-10T10:34:09;98544.56;;;13.76;100.00
53270;BME280;39159;45.634;9.420;2023-05-10T10:36:45;98543.41;;;13.77;100.00
53270;BME280;39159;45.634;9.420;2023-05-10T10:39:11;98540.06;;;13.72;100.00
53270;BME280;39159;45.634;9.420;2023-05-10T10:41:52;98545.56;;;13.72;100.00
53270;BME280;39159;45.634;9.420;2023-05-10T10:44:24;98538.16;;;13.72;100.00
53270;BME280;39159;45.634;9.420;2023-05-10T10:50:07;98530.84;;;13.88;100.00
53270;BME280;39159;45.634;9.420;2023-05-10T10:52:38;98534.97;;;13.82;100.00
53270;BME280;39159;45.634;9.420;2023-05-10T11:00:25;98535.03;;;13.61;100.00
53270;BME280;39159;45.634;9.420;2023-05-10T11:08:14;98541.16;;;13.58;100.00
53270;BME280;39159;45.634;9.420;2023-05-10T11:10:50;98528.44;;;13.41;100.00
53270;BME280;39159;45.634;9.420;2023-05-10T11:13:27;98525.78;;;13.33;100.00
53270;BME280;39159;45.634;9.420;2023-05-10T11:15:53;98530.94;;;13.34;100.00
53270;BME280;39159;45.634;9.420;2023-05-10T11:18:21;98523.03;;;13.33;100.00
53270;BME280;39159;45.634;9.420;2023-05-10T11:20:52;98522.41;;;13.27;100.00
53270;BME280;39159;45.634;9.420;2023-05-10T11:23:18;98527.84;;;13.15;100.00
53270;BME280;39159;45.634;9.420;2023-05-10T11:25:45;98528.53;;;13.12;100.00
53270;BME280;39159;45.634;9.420;2023-05-10T11:28:12;98533.66;;;13.13;100.00
53270;BME280;39159;45.634;9.420;2023-05-10T11:30:42;98523.44;;;13.01;100.00
53270;BME280;39159;45.634;9.420;2023-05-10T11:33:09;98526.97;;;13.02;100.00
53270;BME280;39159;45.634;9.420;2023-05-10T11:35:38;98529.41;;;13.03;100.00
53270;BME280;39159;45.634;9.420;2023-05-10T11:38:09;98525.84;;;13.03;100.00
53270;BME280;39159;45.634;9.420;2023-05-10T11:40:36;98524.44;;;12.97;100.00
53270;BME280;39159;45.634;9.420;2023-05-10T11:43:02;98520.78;;;12.93;100.00
53270;BME280;39159;45.634;9.420;2023-05-10T11:45:29;98517.81;;;12.98;100.00
53270;BME280;39159;45.634;9.420;2023-05-10T11:47:57;98511.34;;;13.02;100.00
53270;BME280;39159;45.634;9.420;2023-05-10T11:50:22;98528.91;;;13.01;100.00
53270;BME280;39159;45.634;9.420;2023-05-10T11:52:52;98525.38;;;13.01;100.00
53270;BME280;39159;45.634;9.420;2023-05-10T11:55:18;98532.78;;;13.00;100.00
53270;BME280;39159;45.634;9.420;2023-05-10T11:57:44;98525.50;;;13.04;100.00
53270;BME280;39159;45.634;9.420;2023-05-10T12:00:12;98528.25;;;13.04;100.00
53270;BME280;39159;45.634;9.420;2023-05-10T12:02:38;98523.78;;;13.00;100.00
53270;BME280;39159;45.634;9.420;2023-05-10T12:05:04;98521.03;;;13.00;100.00
53270;BME280;39159;45.634;9.420;2023-05-10T12:07:31;98523.78;;;13.00;100.00
53270;BME280;39159;45.634;9.420;2023-05-10T12:10:10;98525.72;;;12.99;100.00
53270;BME280;39159;45.634;9.420;2023-05-10T12:12:43;98518.66;;;12.98;100.00
53270;BME280;39159;45.634;9.420;2023-05-10T12:15:23;98519.84;;;12.89;100.00
53270;BME280;39159;45.634;9.420;2023-05-10T12:17:50;98512.41;;;12.89;100.00
53270;BME280;39159;45.634;9.420;2023-05-10T12:20:23;98515.16;;;12.89;100.00
53270;BME280;39159;45.634;9.420;2023-05-10T12:22:57;98511.56;;;12.97;100.00
53270;BME280;39159;45.634;9.420;2023-05-10T12:25:24;98504.06;;;13.06;100.00
53270;BME280;39159;45.634;9.420;2023-05-10T12:27:55;98511.94;;;13.08;100.00
53270;BME280;39159;45.634;9.420;2023-05-10T12:30:29;98509.13;;;13.17;100.00
53270;BME280;39159;45.634;9.420;2023-05-10T12:33:00;98510.34;;;13.07;100.00
53270;BME280;39159;45.634;9.420;2023-05-10T12:35:27;98512.09;;;13.12;100.00
53270;BME280;39159;45.634;9.420;2023-05-10T12:37:55;98517.69;;;13.15;100.00
53270;BME280;39159;45.634;9.420;2023-05-10T12:40:20;98508.19;;;13.13;100.00
53270;BME280;39159;45.634;9.420;2023-05-10T12:42:46;98506.94;;;13.10;100.00
53270;BME280;39159;45.634;9.420;2023-05-10T12:45:12;98512.34;;;13.19;100.00
53270;BME280;39159;45.634;9.420;2023-05-10T12:47:38;98503.66;;;13.17;100.00
53270;BME280;39159;45.634;9.420;2023-05-10T12:50:04;98509.38;;;13.24;100.00
53270;BME280;39159;45.634;9.420;2023-05-10T12:52:31;98502.97;;;13.20;100.00
53270;BME280;39159;45.634;9.420;2023-05-10T12:54:58;98505.06;;;13.23;100.00
53270;BME280;39159;45.634;9.420;2023-05-10T12:57:24;98511.72;;;13.13;100.00
53270;BME280;39159;45.634;9.420;2023-05-10T12:59:50;98511.41;;;13.15;100.00
53270;BME280;39159;45.634;9.420;2023-05-10T13:02:15;98505.53;;;13.04;100.00
53270;BME280;39159;45.634;9.420;2023-05-10T13:04:44;98504.84;;;13.07;100.00
53270;BME280;39159;45.634;9.420;2023-05-10T13:07:09;98503.34;;;12.97;100.00
53270;BME280;39159;45.634;9.420;2023-05-10T13:09:35;98501.78;;;13.09;100.00
53270;BME280;39159;45.634;9.420;2023-05-10T13:12:01;98506.19;;;13.22;100.00
53270;BME280;39159;45.634;9.420;2023-05-10T13:14:27;98502.88;;;12.95;100.00
53270;BME280;39159;45.634;9.420;2023-05-10T13:16:53;98496.84;;;13.02;100.00
53270;BME280;39159;45.634;9.420;2023-05-10T13:19:19;98498.56;;;13.06;100.00
53270;BME280;39159;45.634;9.420;2023-05-10T13:21:44;98494.72;;;13.07;100.00
53270;BME280;39159;45.634;9.420;2023-05-10T13:24:11;98500.38;;;13.02;100.00